Time;durP1;ratioP1;P1;durP2;ratioP2;P2;SDS_P1;SDS_P2;PMS_P1;PMS_P2;Temp;Humidity;BMP_temperature;BMP_pressure;BME280_temperature;BME280_humidity;BME280_pressure;Samples;Min_cycle;Max_cycle;Signal;HPM_P1;HPM_P2
2023/03/27 00:00:43;;;;;;;23.02;18.98;;;12.50;1.00;;;;;;5125508;27;20015;-64
2023/03/27 00:03:11;;;;;;;26.45;18.65;;;12.40;1.00;;;;;;5113170;27;20449;-64
2023/03/27 00:05:37;;;;;;;24.77;18.75;;;12.40;1.00;;;;;;5104349;27;20031;-64
2023/03/27 00:08:04;;;;;;;25.63;19.20;;;12.40;1.00;;;;;;5115741;27;20027;-64
2023/03/27 00:10:31;;;;;;;25.70;18.40;;;12.40;1.00;;;;;;5121317;27;20365;-64
2023/03/27 00:12:57;;;;;;;22.45;18.45;;;12.40;1.00;;;;;;5106704;27;20023;-65
2023/03/27 00:15:23;;;;;;;20.90;17.80;;;12.40;1.00;;;;;;5115894;27;20032;-64
2023/03/27 00:17:51;;;;;;;24.98;18.25;;;12.40;1.00;;;;;;5115346;27;20032;-64
2023/03/27 00:20:23;;;;;;;24.90;19.52;;;12.30;1.00;;;;;;5113936;27;20028;-65
2023/03/27 00:22:54;;;;;;;25.20;18.45;;;12.40;1.00;;;;;;5115254;27;20027;-64
2023/03/27 00:25:21;;;;;;;25.02;18.83;;;12.30;1.00;;;;;;5114418;27;20027;-64
2023/03/27 00:27:47;;;;;;;24.08;18.15;;;12.40;1.00;;;;;;5117022;27;20035;-64
2023/03/27 00:30:14;;;;;;;22.02;18.70;;;12.40;1.00;;;;;;5116168;27;20036;-64
2023/03/27 00:32:40;;;;;;;25.02;18.38;;;12.40;1.00;;;;;;5109214;27;20427;-64
2023/03/27 00:35:08;;;;;;;25.63;17.88;;;12.40;1.00;;;;;;5107211;27;20554;-64
2023/03/27 00:37:37;;;;;;;23.25;17.63;;;12.40;1.00;;;;;;5114077;27;20114;-65
2023/03/27 00:40:06;;;;;;;21.75;17.02;;;12.30;1.00;;;;;;5120654;27;20031;-64
2023/03/27 00:42:34;;;;;;;23.00;16.85;;;12.30;1.00;;;;;;5118909;27;20122;-64
2023/03/27 00:45:01;;;;;;;22.50;16.70;;;12.20;1.00;;;;;;5112295;27;20112;-64
2023/03/27 00:47:55;;;;;;;20.67;16.85;;;12.20;1.00;;;;;;5119516;27;20121;-64
2023/03/27 00:50:26;;;;;;;18.52;14.57;;;12.20;1.00;;;;;;5115841;27;20123;-64
2023/03/27 00:52:57;;;;;;;17.92;14.10;;;12.10;1.00;;;;;;5117621;27;20023;-64
2023/03/27 00:55:25;;;;;;;15.95;11.32;;;12.00;1.00;;;;;;5110513;28;20126;-64
2023/03/27 00:57:56;;;;;;;18.40;13.05;;;11.80;1.00;;;;;;5117069;27;20024;-64
2023/03/27 01:00:22;;;;;;;15.25;12.30;;;12.00;1.00;;;;;;5117789;27;20392;-64
2023/03/27 01:02:49;;;;;;;14.63;12.30;;;12.00;1.00;;;;;;5106570;27;20027;-64
2023/03/27 01:05:17;;;;;;;14.73;11.43;;;12.00;1.00;;;;;;5120054;27;20062;-64
2023/03/27 01:07:43;;;;;;;13.02;10.50;;;12.00;1.00;;;;;;5106332;27;20023;-64
2023/03/27 01:10:10;;;;;;;14.07;9.23;;;12.00;1.00;;;;;;5105660;27;20040;-64
2023/03/27 01:12:53;;;;;;;12.82;9.20;;;12.00;1.00;;;;;;5101325;27;20024;-64
2023/03/27 01:15:44;;;;;;;9.75;7.95;;;12.00;1.00;;;;;;5103267;27;20028;-64
2023/03/27 01:18:36;;;;;;;9.40;7.72;;;11.90;1.00;;;;;;5111529;27;20019;-65
2023/03/27 01:21:05;;;;;;;10.02;7.53;;;11.90;1.00;;;;;;5113782;27;20035;-64
2023/03/27 01:23:57;;;;;;;11.27;6.90;;;11.90;1.00;;;;;;5123259;27;20484;-64
2023/03/27 01:26:32;;;;;;;7.10;6.40;;;11.90;1.00;;;;;;5124653;27;20157;-64
2023/03/27 01:29:24;;;;;;;9.65;5.88;;;12.00;1.00;;;;;;5115714;27;20072;-64
2023/03/27 01:32:33;;;;;;;9.43;5.57;;;11.90;1.00;;;;;;5117506;27;20031;-64
2023/03/27 01:35:23;;;;;;;7.90;6.15;;;11.90;1.00;;;;;;5123578;27;20081;-64
2023/03/27 01:38:11;;;;;;;10.80;5.65;;;11.90;1.00;;;;;;5108839;28;20027;-64
2023/03/27 01:41:04;;;;;;;8.70;5.90;;;11.90;1.00;;;;;;5114022;27;20464;-65
2023/03/27 01:43:38;;;;;;;9.95;5.85;;;11.80;1.00;;;;;;5098962;28;20470;-65
2023/03/27 01:46:15;;;;;;;9.82;5.25;;;11.80;1.00;;;;;;5122457;28;20156;-65
2023/03/27 01:48:56;;;;;;;6.40;4.85;;;11.80;1.00;;;;;;5112282;28;20514;-65
2023/03/27 01:51:35;;;;;;;7.28;3.90;;;11.70;1.00;;;;;;5105913;28;20050;-64
2023/03/27 01:54:11;;;;;;;5.82;4.55;;;11.70;1.00;;;;;;5122301;28;20124;-64
2023/03/27 01:56:50;;;;;;;5.63;4.43;;;11.70;1.00;;;;;;5125906;27;20023;-64
2023/03/27 01:59:18;;;;;;;6.22;4.65;;;11.70;1.00;;;;;;5116990;27;20027;-64
2023/03/27 02:01:49;;;;;;;6.75;4.00;;;11.70;1.00;;;;;;5108082;27;20060;-65
2023/03/27 02:04:30;;;;;;;4.97;4.10;;;11.70;1.00;;;;;;5101996;27;20048;-64
2023/03/27 02:07:03;;;;;;;4.90;3.45;;;11.70;1.00;;;;;;5123201;27;20023;-64
2023/03/27 02:09:37;;;;;;;6.50;3.53;;;11.70;1.00;;;;;;5126392;27;20487;-65
2023/03/27 02:12:14;;;;;;;3.67;3.30;;;11.60;1.00;;;;;;5107043;27;20315;-64
2023/03/27 02:14:50;;;;;;;4.63;3.08;;;11.60;1.00;;;;;;5121489;27;20057;-65
2023/03/27 02:17:18;;;;;;;5.40;3.05;;;11.60;1.00;;;;;;5104873;27;20058;-64
2023/03/27 02:19:50;;;;;;;3.65;2.60;;;11.60;1.00;;;;;;5124844;27;20024;-65
2023/03/27 02:22:15;;;;;;;3.85;2.50;;;11.60;1.00;;;;;;5121098;27;20023;-65
2023/03/27 02:24:45;;;;;;;3.58;2.20;;;11.60;1.00;;;;;;5121173;27;20143;-64
2023/03/27 02:27:46;;;;;;;4.15;2.47;;;11.60;1.00;;;;;;5116113;27;20118;-65
2023/03/27 02:30:45;;;;;;;4.80;2.20;;;11.60;1.00;;;;;;5119315;27;20488;-65
2023/03/27 02:33:16;;;;;;;1.85;1.30;;;11.50;1.00;;;;;;5118058;27;20094;-65
2023/03/27 02:36:05;;;;;;;2.17;1.98;;;11.50;1.00;;;;;;5122518;27;20055;-65
2023/03/27 02:38:31;;;;;;;1.95;1.30;;;11.50;1.00;;;;;;5118264;27;20530;-65
2023/03/27 02:41:29;;;;;;;2.05;1.52;;;11.50;1.00;;;;;;5115032;27;20024;-65
2023/03/27 02:44:13;;;;;;;1.88;1.30;;;11.40;1.00;;;;;;5111365;27;20118;-65
2023/03/27 02:46:51;;;;;;;1.60;1.15;;;11.50;1.00;;;;;;5128902;27;20031;-65
2023/03/27 02:49:26;;;;;;;1.98;1.40;;;11.50;1.00;;;;;;5108722;28;20059;-65
2023/03/27 02:52:01;;;;;;;1.15;0.95;;;11.40;1.00;;;;;;5102313;27;20137;-65
2023/03/27 02:54:43;;;;;;;3.92;1.45;;;11.20;1.00;;;;;;5116045;27;20115;-65
2023/03/27 02:57:14;;;;;;;2.92;1.27;;;11.30;1.00;;;;;;5119642;27;20050;-64
2023/03/27 02:59:49;;;;;;;3.70;0.98;;;11.30;1.00;;;;;;5122315;27;20032;-64
2023/03/27 03:02:23;;;;;;;1.35;1.25;;;11.40;1.00;;;;;;5122916;27;20046;-65
2023/03/27 03:04:58;;;;;;;3.58;1.83;;;11.40;1.00;;;;;;5111788;27;20028;-64
2023/03/27 03:07:25;;;;;;;2.88;2.00;;;11.40;1.00;;;;;;5112633;27;20444;-64
2023/03/27 03:09:52;;;;;;;3.47;1.65;;;11.30;1.00;;;;;;5128995;27;20031;-64
2023/03/27 03:12:18;;;;;;;2.13;1.70;;;11.30;1.00;;;;;;5121939;27;20499;-65
2023/03/27 03:14:44;;;;;;;5.47;1.80;;;11.20;1.00;;;;;;5099081;27;20032;-65
2023/03/27 03:17:14;;;;;;;3.55;3.25;;;11.20;1.00;;;;;;5121253;27;20031;-65
2023/03/27 03:19:40;;;;;;;3.75;3.03;;;11.20;1.00;;;;;;5097259;28;20114;-65
2023/03/27 03:22:06;;;;;;;3.85;3.40;;;11.30;1.00;;;;;;5124061;27;20559;-64
2023/03/27 03:24:34;;;;;;;4.05;3.40;;;11.20;1.00;;;;;;5117235;27;20127;-64
2023/03/27 03:27:02;;;;;;;4.45;3.40;;;11.30;1.00;;;;;;5118516;27;20031;-64
2023/03/27 03:29:35;;;;;;;4.13;2.72;;;11.30;1.00;;;;;;5129142;27;20043;-64
2023/03/27 03:32:02;;;;;;;;;;;11.10;1.00;;;;;;5119142;27;20415;-64
2023/03/27 03:34:29;;;;;;;3.20;2.17;;;10.90;1.00;;;;;;5120068;27;19915;-65
2023/03/27 03:36:55;;;;;;;1.80;1.30;;;10.90;1.00;;;;;;5115757;27;20453;-64
2023/03/27 03:39:21;;;;;;;2.25;1.10;;;11.00;1.00;;;;;;5120990;27;20038;-64
2023/03/27 03:41:47;;;;;;;3.08;1.40;;;10.90;1.00;;;;;;5113535;27;20031;-65
2023/03/27 03:44:13;;;;;;;3.17;0.93;;;10.90;1.00;;;;;;5121310;27;21765;-65
2023/03/27 03:46:39;;;;;;;1.45;1.20;;;10.90;1.00;;;;;;5123587;27;20024;-65
2023/03/27 03:49:06;;;;;;;0.93;0.80;;;10.90;1.00;;;;;;5112433;27;20039;-65
2023/03/27 03:51:34;;;;;;;1.27;1.13;;;10.90;1.00;;;;;;5096924;28;20020;-65
2023/03/27 03:54:00;;;;;;;1.35;0.90;;;10.90;1.00;;;;;;5117828;27;20492;-65
2023/03/27 03:56:28;;;;;;;0.63;0.57;;;10.90;1.00;;;;;;5102115;27;20019;-64
2023/03/27 03:58:55;;;;;;;1.90;0.60;;;11.00;1.00;;;;;;5103870;27;20491;-64
2023/03/27 04:01:21;;;;;;;1.08;0.50;;;11.10;1.00;;;;;;5119082;27;20614;-65
2023/03/27 04:03:48;;;;;;;2.42;0.63;;;11.10;1.00;;;;;;5113778;28;20128;-64
2023/03/27 04:06:16;;;;;;;2.65;0.68;;;11.10;1.00;;;;;;5112921;27;20761;-64
2023/03/27 04:08:42;;;;;;;1.00;0.35;;;11.10;1.00;;;;;;5119547;27;20365;-65
2023/03/27 04:11:08;;;;;;;1.65;0.40;;;11.20;1.00;;;;;;5120904;27;20034;-64
2023/03/27 04:13:33;;;;;;;1.70;0.40;;;11.10;1.00;;;;;;5114382;27;20055;-64
2023/03/27 04:16:00;;;;;;;0.60;0.38;;;11.20;1.00;;;;;;5120509;27;20478;-65
2023/03/27 04:18:31;;;;;;;0.50;0.13;;;11.10;1.00;;;;;;5128119;27;20361;-65
2023/03/27 04:20:57;;;;;;;0.55;0.30;;;11.20;1.00;;;;;;5120552;27;20102;-65
2023/03/27 04:23:29;;;;;;;0.85;0.40;;;11.20;1.00;;;;;;5115817;27;20024;-65
2023/03/27 04:26:02;;;;;;;2.05;0.20;;;11.30;1.00;;;;;;5108575;27;20027;-65
2023/03/27 04:28:33;;;;;;;0.22;0.10;;;11.30;1.00;;;;;;5108170;27;20023;-64
2023/03/27 04:31:06;;;;;;;0.30;0.10;;;11.30;1.00;;;;;;5116254;27;20109;-65
2023/03/27 04:33:38;;;;;;;0.13;0.10;;;11.30;1.00;;;;;;5097365;28;20123;-65
2023/03/27 04:36:06;;;;;;;0.57;0.30;;;11.30;1.00;;;;;;5115036;27;20027;-65
2023/03/27 04:38:36;;;;;;;0.80;0.20;;;11.30;1.00;;;;;;5117867;27;20357;-65
2023/03/27 04:41:03;;;;;;;0.20;0.10;;;11.40;1.00;;;;;;5114568;27;20027;-65
2023/03/27 04:43:28;;;;;;;0.40;0.20;;;11.30;1.00;;;;;;5119794;27;20114;-64
2023/03/27 04:45:54;;;;;;;0.80;0.20;;;11.40;1.00;;;;;;5113924;27;20115;-64
2023/03/27 04:48:20;;;;;;;1.00;0.13;;;11.40;1.00;;;;;;5110287;27;20023;-65
2023/03/27 04:50:50;;;;;;;1.02;0.10;;;11.30;1.00;;;;;;5119811;27;20114;-64
2023/03/27 04:53:17;;;;;;;0.75;0.28;;;11.30;1.00;;;;;;5120781;27;20035;-64
2023/03/27 04:55:46;;;;;;;0.55;0.40;;;11.40;1.00;;;;;;5118199;27;20047;-64
2023/03/27 04:58:14;;;;;;;2.13;0.65;;;11.30;1.00;;;;;;5114295;27;20020;-65
2023/03/27 05:00:40;;;;;;;0.68;0.30;;;11.40;1.00;;;;;;5097937;28;20504;-65
2023/03/27 05:03:05;;;;;;;0.50;0.30;;;11.30;1.00;;;;;;5112985;27;20044;-65
2023/03/27 05:05:33;;;;;;;1.15;0.28;;;11.30;1.00;;;;;;5123560;27;20469;-65
2023/03/27 05:07:59;;;;;;;1.38;0.30;;;11.30;1.00;;;;;;5114510;27;20098;-65
2023/03/27 05:10:25;;;;;;;1.65;0.40;;;11.30;1.00;;;;;;5095578;28;20122;-65
2023/03/27 05:12:52;;;;;;;4.57;1.40;;;11.40;1.00;;;;;;5111960;27;20027;-65
2023/03/27 05:15:19;;;;;;;2.25;1.10;;;11.30;1.00;;;;;;5107767;27;20035;-65
2023/03/27 05:17:51;;;;;;;2.53;0.98;;;11.30;1.00;;;;;;5114319;27;20084;-65
2023/03/27 05:20:18;;;;;;;2.28;1.25;;;11.20;1.00;;;;;;5100331;27;20392;-65
2023/03/27 05:22:44;;;;;;;4.78;1.40;;;11.10;1.00;;;;;;5113432;27;20023;-65
2023/03/27 05:25:10;;;;;;;3.50;1.33;;;11.20;1.00;;;;;;5115407;27;20030;-65
2023/03/27 05:27:36;;;;;;;2.78;1.55;;;11.20;1.00;;;;;;5126819;27;20049;-65
2023/03/27 05:30:03;;;;;;;2.22;1.60;;;11.20;1.00;;;;;;5113514;27;20039;-65
2023/03/27 05:32:28;;;;;;;3.03;1.65;;;11.20;1.00;;;;;;5116318;27;20024;-65
2023/03/27 05:34:54;;;;;;;4.82;2.20;;;11.20;1.00;;;;;;5112660;28;20058;-65
2023/03/27 05:37:21;;;;;;;2.55;1.95;;;11.10;1.00;;;;;;5106849;28;20118;-65
2023/03/27 05:39:47;;;;;;;3.03;1.65;;;11.00;1.00;;;;;;5106887;28;20023;-65
2023/03/27 05:42:13;;;;;;;2.72;1.42;;;11.10;1.00;;;;;;5112095;28;20042;-65
2023/03/27 05:44:42;;;;;;;2.40;1.50;;;11.10;1.00;;;;;;5088485;28;20099;-64
2023/03/27 05:47:13;;;;;;;4.40;1.58;;;11.10;1.00;;;;;;5111961;28;20055;-65
2023/03/27 05:49:39;;;;;;;2.35;1.42;;;11.10;1.00;;;;;;5108466;28;20046;-65
2023/03/27 05:52:05;;;;;;;3.40;1.17;;;11.20;1.00;;;;;;5120034;28;20028;-65
2023/03/27 05:54:31;;;;;;;6.32;1.10;;;11.20;1.00;;;;;;5116103;28;20030;-65
2023/03/27 05:56:56;;;;;;;4.10;1.38;;;11.20;1.00;;;;;;5116668;28;20751;-64
2023/03/27 05:59:23;;;;;;;2.40;1.20;;;11.30;1.00;;;;;;5117608;28;20033;-65
2023/03/27 06:01:49;;;;;;;3.50;0.75;;;11.20;1.00;;;;;;5120914;28;20508;-65
2023/03/27 06:04:16;;;;;;;2.65;0.88;;;11.30;1.00;;;;;;5120616;28;20019;-65
2023/03/27 06:06:43;;;;;;;1.85;0.90;;;11.30;1.00;;;;;;5117020;28;20027;-65
2023/03/27 06:09:09;;;;;;;3.45;0.88;;;11.30;1.00;;;;;;5113452;28;20048;-65
2023/03/27 06:11:34;;;;;;;1.80;0.93;;;11.30;1.00;;;;;;5122312;28;20594;-65
2023/03/27 06:14:00;;;;;;;2.83;0.90;;;11.40;1.00;;;;;;5121898;28;20027;-65
2023/03/27 06:16:27;;;;;;;3.58;1.48;;;11.30;1.00;;;;;;5118254;28;20046;-65
2023/03/27 06:18:52;;;;;;;5.00;2.20;;;11.40;1.00;;;;;;5117492;28;20028;-65
2023/03/27 06:21:18;;;;;;;5.85;1.80;;;11.40;1.00;;;;;;5102861;28;20016;-66
2023/03/27 06:23:44;;;;;;;5.47;1.88;;;11.50;1.00;;;;;;5102082;28;20531;-66
2023/03/27 06:26:10;;;;;;;4.63;2.17;;;11.50;1.00;;;;;;5112905;28;20042;-66
2023/03/27 06:28:38;;;;;;;3.70;2.60;;;11.50;1.00;;;;;;5118467;28;20038;-66
2023/03/27 06:31:04;;;;;;;4.18;2.40;;;11.50;1.00;;;;;;5115178;28;20027;-65
2023/03/27 06:33:30;;;;;;;3.78;1.95;;;11.60;1.00;;;;;;5118330;28;20497;-65
2023/03/27 06:35:59;;;;;;;3.33;1.98;;;11.60;1.00;;;;;;5123921;28;20110;-65
2023/03/27 06:38:30;;;;;;;6.18;2.42;;;11.60;1.00;;;;;;5120086;28;20028;-65
2023/03/27 06:40:58;;;;;;;3.08;2.35;;;11.50;1.00;;;;;;5112707;28;20020;-65
2023/03/27 06:43:24;;;;;;;4.35;2.40;;;11.40;1.00;;;;;;5112291;27;20527;-65
2023/03/27 06:45:51;;;;;;;4.00;2.25;;;11.50;1.00;;;;;;5101951;27;20043;-65
2023/03/27 06:48:18;;;;;;;5.25;2.85;;;11.40;1.00;;;;;;5115475;27;20036;-65
2023/03/27 06:50:45;;;;;;;6.82;2.95;;;11.50;1.00;;;;;;5119442;27;20031;-65
2023/03/27 06:53:14;;;;;;;5.18;2.58;;;11.50;1.00;;;;;;5110271;27;20111;-65
2023/03/27 06:55:41;;;;;;;3.67;2.40;;;11.50;1.00;;;;;;5122795;27;20028;-65
2023/03/27 06:58:07;;;;;;;5.07;2.53;;;11.50;1.00;;;;;;5118051;27;20031;-65
2023/03/27 07:00:36;;;;;;;5.85;2.30;;;11.50;1.00;;;;;;5103202;27;20031;-62
2023/03/27 07:03:04;;;;;;;3.45;2.17;;;11.60;1.00;;;;;;5115118;27;20045;-67
2023/03/27 07:05:35;;;;;;;4.03;2.10;;;11.70;1.00;;;;;;5124753;27;20397;-60
2023/03/27 07:08:05;;;;;;;2.33;2.10;;;11.70;1.00;;;;;;5117477;27;20081;-59
2023/03/27 07:10:31;;;;;;;3.13;2.20;;;11.70;1.00;;;;;;5116085;27;20546;-58
2023/03/27 07:12:57;;;;;;;4.65;2.17;;;11.80;1.00;;;;;;5098385;27;20084;-58
2023/03/27 07:15:23;;;;;;;6.22;2.10;;;11.80;1.00;;;;;;5127453;27;20031;-60
2023/03/27 07:18:00;;;;;;;5.28;2.53;;;11.80;1.00;;;;;;5121454;27;20027;-59
2023/03/27 07:20:29;;;;;;;4.45;2.17;;;11.80;1.00;;;;;;5121462;27;20076;-59
2023/03/27 07:22:56;;;;;;;4.07;2.70;;;11.70;1.00;;;;;;5104486;27;20028;-60
2023/03/27 07:25:36;;;;;;;5.13;1.92;;;11.80;1.00;;;;;;5104273;27;20023;-58
2023/03/27 07:28:12;;;;;;;5.35;2.40;;;11.90;1.00;;;;;;5122942;27;20027;-57
2023/03/27 07:30:38;;;;;;;5.95;1.85;;;12.00;1.00;;;;;;5115872;27;20036;-59
2023/03/27 07:33:08;;;;;;;4.05;2.28;;;12.00;1.00;;;;;;5117726;27;20065;-59
2023/03/27 07:35:34;;;;;;;2.63;1.70;;;12.10;1.00;;;;;;5131783;27;20024;-61
2023/03/27 07:38:02;;;;;;;2.25;1.52;;;12.20;1.00;;;;;;5108998;27;20063;-61
2023/03/27 07:40:27;;;;;;;1.58;1.42;;;12.20;1.00;;;;;;5116209;27;20029;-60
2023/03/27 07:42:53;;;;;;;3.30;1.70;;;12.30;1.00;;;;;;5121846;27;20041;-59
2023/03/27 07:45:21;;;;;;;4.55;1.30;;;12.30;1.00;;;;;;5112339;27;20027;-58
2023/03/27 07:47:47;;;;;;;3.63;1.25;;;12.40;1.00;;;;;;5123638;27;20027;-59
2023/03/27 07:50:15;;;;;;;3.10;1.55;;;12.50;1.00;;;;;;5117359;27;20400;-60
2023/03/27 07:52:44;;;;;;;3.63;1.30;;;12.50;1.00;;;;;;5122638;27;20350;-64
2023/03/27 07:55:14;;;;;;;2.40;1.10;;;12.60;1.00;;;;;;5110917;27;20065;-61
2023/03/27 07:57:46;;;;;;;4.63;1.25;;;12.70;1.00;;;;;;5117667;27;20023;-62
2023/03/27 08:00:16;;;;;;;3.05;1.05;;;12.70;1.00;;;;;;5100239;27;20020;-64
2023/03/27 08:02:44;;;;;;;7.43;1.10;;;12.70;1.00;;;;;;5095508;28;20028;-61
2023/03/27 08:05:10;;;;;;;1.00;0.63;;;13.00;1.00;;;;;;5125443;27;20030;-68
2023/03/27 08:07:39;;;;;;;3.15;0.20;;;13.10;1.00;;;;;;5113083;27;20043;-63
2023/03/27 08:10:05;;;;;;;1.27;0.32;;;13.20;1.00;;;;;;5118778;27;20043;-71
2023/03/27 08:12:33;;;;;;;1.58;0.20;;;13.30;1.00;;;;;;5102359;27;20035;-61
2023/03/27 08:14:59;;;;;;;0.30;0.20;;;13.50;1.00;;;;;;5126125;27;20031;-60
2023/03/27 08:17:29;;;;;;;0.32;0.05;;;13.50;1.00;;;;;;5122427;27;20077;-67
2023/03/27 08:19:55;;;;;;;0.10;0.00;;;13.70;1.00;;;;;;5109092;27;20442;-55
2023/03/27 08:22:21;;;;;;;1.48;0.10;;;13.70;1.00;;;;;;5120484;27;20054;-63
2023/03/27 08:24:48;;;;;;;2.58;0.20;;;13.70;1.00;;;;;;5123811;27;20019;-58
2023/03/27 08:27:14;;;;;;;1.23;0.10;;;13.80;1.00;;;;;;5128662;27;20243;-57
2023/03/27 08:29:41;;;;;;;0.57;0.40;;;14.00;1.00;;;;;;5114252;27;20556;-60
2023/03/27 08:32:09;;;;;;;0.80;0.10;;;13.90;1.00;;;;;;5110572;27;20020;-66
2023/03/27 08:34:35;;;;;;;1.30;0.28;;;13.90;1.00;;;;;;5114809;27;20043;-78
2023/03/27 08:37:01;;;;;;;0.93;0.17;;;13.90;1.00;;;;;;5103005;27;20431;-71
2023/03/27 08:39:29;;;;;;;0.40;0.05;;;14.10;1.00;;;;;;5094813;28;20020;-60
2023/03/27 08:41:57;;;;;;;2.25;0.40;;;14.20;1.00;;;;;;5107088;27;20317;-60
2023/03/27 08:44:25;;;;;;;6.22;0.20;;;14.30;1.00;;;;;;5126134;27;20042;-66
2023/03/27 08:46:56;;;;;;;1.38;0.17;;;14.30;1.00;;;;;;5085826;28;20046;-66
2023/03/27 08:49:25;;;;;;;1.10;0.10;;;14.20;1.00;;;;;;5113638;27;20043;-59
2023/03/27 08:52:05;;;;;;;3.70;0.20;;;14.30;1.00;;;;;;5120933;27;20020;-60
2023/03/27 08:54:33;;;;;;;0.43;0.30;;;14.20;1.00;;;;;;5115530;27;20102;-61
2023/03/27 08:57:00;;;;;;;0.82;0.47;;;14.30;1.00;;;;;;5109699;27;20034;-63
2023/03/27 08:59:28;;;;;;;1.65;0.20;;;14.40;1.00;;;;;;5121484;27;20034;-63
2023/03/27 09:02:10;;;;;;;1.38;0.52;;;14.50;1.00;;;;;;5124501;27;20549;-68
2023/03/27 09:05:05;;;;;;;5.75;0.70;;;14.40;1.00;;;;;;5114000;27;20020;-66
2023/03/27 09:07:33;;;;;;;;;;;14.50;1.00;;;;;;5111243;27;20027;-68
2023/03/27 09:10:23;;;;;;;3.38;0.30;;;14.50;1.00;;;;;;5112176;28;19915;-61
2023/03/27 09:13:03;;;;;;;2.72;0.10;;;14.50;1.00;;;;;;5123110;27;20384;-61
2023/03/27 09:15:56;;;;;;;1.15;0.10;;;14.60;1.00;;;;;;5125808;27;20533;-61
2023/03/27 09:18:36;;;;;;;3.15;0.20;;;14.70;1.00;;;;;;5112322;27;20031;-61
2023/03/27 09:21:14;;;;;;;2.50;0.20;;;14.80;1.00;;;;;;5119455;27;20067;-61
2023/03/27 09:23:45;;;;;;;1.98;0.40;;;14.80;1.00;;;;;;5122464;27;20107;-67
2023/03/27 09:26:16;;;;;;;2.50;0.10;;;14.80;1.00;;;;;;5111399;28;20028;-67
2023/03/27 09:28:50;;;;;;;2.38;0.25;;;14.70;1.00;;;;;;5115945;27;20035;-63
2023/03/27 09:31:16;;;;;;;4.05;0.30;;;14.80;1.00;;;;;;5120781;27;20085;-66
2023/03/27 09:33:43;;;;;;;0.40;0.20;;;15.00;1.00;;;;;;5120666;27;20043;-63
2023/03/27 09:36:09;;;;;;;0.20;0.20;;;14.90;1.00;;;;;;5121295;27;20500;-59
2023/03/27 09:38:38;;;;;;;0.10;0.10;;;15.00;1.00;;;;;;5119827;27;20027;-74
2023/03/27 09:41:10;;;;;;;1.77;0.10;;;14.90;1.00;;;;;;5108757;27;20055;-59
2023/03/27 09:43:52;;;;;;;1.33;0.17;;;15.00;1.00;;;;;;5111311;28;20434;-59
2023/03/27 09:46:20;;;;;;;0.98;0.73;;;15.00;1.00;;;;;;5089269;28;20035;-63
2023/03/27 09:49:02;;;;;;;1.98;0.10;;;15.10;1.00;;;;;;5111711;28;20537;-63
2023/03/27 09:51:45;;;;;;;0.05;0.00;;;15.10;1.00;;;;;;5108379;28;20424;-63
2023/03/27 09:54:13;;;;;;;0.03;0.03;;;15.20;1.00;;;;;;5111900;28;20023;-61
2023/03/27 09:56:52;;;;;;;1.85;0.10;;;15.10;1.00;;;;;;5092326;28;20097;-66
2023/03/27 09:59:39;;;;;;;2.17;0.10;;;15.20;1.00;;;;;;5105484;28;20028;-63
2023/03/27 10:02:22;;;;;;;0.77;0.20;;;15.20;1.00;;;;;;5112287;28;20387;-62
2023/03/27 10:05:14;;;;;;;0.30;0.30;;;15.20;1.00;;;;;;5106768;28;20073;-65
2023/03/27 10:07:41;;;;;;;0.43;0.20;;;15.20;1.00;;;;;;5112023;28;20534;-62
2023/03/27 10:10:12;;;;;;;1.27;0.10;;;15.30;1.00;;;;;;5107845;28;20043;-68
2023/03/27 10:12:39;;;;;;;0.70;0.10;;;15.40;1.00;;;;;;5107620;28;20051;-67
2023/03/27 10:15:25;;;;;;;0.10;0.10;;;15.40;1.00;;;;;;5093701;28;20473;-66
2023/03/27 10:17:51;;;;;;;0.38;0.10;;;15.40;1.00;;;;;;5108944;28;20142;-61
2023/03/27 10:20:19;;;;;;;1.38;0.10;;;15.50;1.00;;;;;;5116236;28;20112;-61
2023/03/27 10:22:59;;;;;;;0.05;0.00;;;15.50;1.00;;;;;;5116221;28;20423;-58
